Time;durP1;ratioP1;P1;durP2;ratioP2;P2;SDS_P1;SDS_P2;PMS_P1;PMS_P2;Temp;Humidity;BMP_temperature;BMP_pressure;BME280_temperature;BME280_humidity;BME280_pressure;Samples;Min_cycle;Max_cycle;Signal;HPM_P1;HPM_P2
2021/04/21 00:02:17;;;;;;;28.15;16.98;;;12.50;64.30;;;;;;5054697;28;20080;-44
2021/04/21 00:04:46;;;;;;;29.77;17.92;;;12.50;64.10;;;;;;5054916;28;20045;-42
2021/04/21 00:07:20;;;;;;;33.80;19.23;;;12.50;64.20;;;;;;5054251;28;20545;-46
2021/04/21 00:09:48;;;;;;;28.75;18.02;;;12.50;64.40;;;;;;5036865;28;20060;-45
2021/04/21 00:12:20;;;;;;;29.50;17.65;;;12.40;64.30;;;;;;5036746;28;20411;-47
2021/04/21 00:14:50;;;;;;;33.22;18.00;;;12.50;64.40;;;;;;5054886;28;20048;-48
2021/04/21 00:17:20;;;;;;;33.10;19.75;;;12.50;64.40;;;;;;5054880;28;20136;-44
2021/04/21 00:19:49;;;;;;;29.13;18.52;;;12.50;65.00;;;;;;5054814;28;20049;-45
2021/04/21 00:22:17;;;;;;;29.45;18.27;;;12.40;64.50;;;;;;5054034;28;20079;-44
2021/04/21 00:24:46;;;;;;;27.63;17.10;;;12.40;64.50;;;;;;5052618;28;20044;-45
2021/04/21 00:27:21;;;;;;;31.23;20.95;;;12.40;64.50;;;;;;5054207;28;20049;-44
2021/04/21 00:29:51;;;;;;;29.02;19.27;;;12.40;64.60;;;;;;5054660;28;20053;-43
2021/04/21 00:32:19;;;;;;;35.35;18.50;;;12.40;64.70;;;;;;5054392;28;20075;-44
2021/04/21 00:34:47;;;;;;;32.10;19.75;;;12.30;64.80;;;;;;5054156;28;20080;-47
2021/04/21 00:37:15;;;;;;;30.35;19.48;;;12.30;64.80;;;;;;5053747;28;20115;-45
2021/04/21 00:39:44;;;;;;;28.73;19.17;;;12.30;64.70;;;;;;5053855;28;20399;-46
2021/04/21 00:42:22;;;;;;;27.83;17.77;;;12.30;64.90;;;;;;5054194;28;20045;-46
2021/04/21 00:45:02;;;;;;;37.80;23.70;;;12.20;65.10;;;;;;5036502;28;20056;-46
2021/04/21 00:47:50;;;;;;;35.28;20.55;;;12.10;65.50;;;;;;5035329;28;20098;-45
2021/04/21 00:50:39;;;;;;;31.10;20.02;;;12.00;65.70;;;;;;5053217;28;20060;-45
2021/04/21 00:53:12;;;;;;;28.80;19.25;;;12.00;65.50;;;;;;5036393;28;20399;-43
2021/04/21 00:56:03;;;;;;;31.48;19.73;;;12.00;65.40;;;;;;5052558;28;20044;-43
2021/04/21 00:58:42;;;;;;;33.00;19.52;;;12.00;65.50;;;;;;5035583;28;20514;-43
2021/04/21 01:01:10;;;;;;;31.15;18.52;;;12.00;65.50;;;;;;5036068;28;20049;-44
2021/04/21 01:03:41;;;;;;;27.15;17.85;;;12.00;65.90;;;;;;5035528;28;20507;-46
2021/04/21 01:06:15;;;;;;;32.08;19.02;;;12.00;65.20;;;;;;5053264;28;20045;-47
2021/04/21 01:08:42;;;;;;;28.88;17.20;;;12.00;65.10;;;;;;5035638;28;20057;-44
2021/04/21 01:11:23;;;;;;;27.10;16.92;;;12.00;65.10;;;;;;5053786;28;20057;-44
2021/04/21 01:14:04;;;;;;;27.65;17.13;;;12.00;65.10;;;;;;5035882;28;20056;-46
2021/04/21 01:16:34;;;;;;;26.65;16.48;;;12.00;64.90;;;;;;5035933;28;20495;-45
2021/04/21 01:19:12;;;;;;;29.23;16.48;;;12.00;64.90;;;;;;5052971;28;20623;-44
2021/04/21 01:21:52;;;;;;;26.08;16.27;;;12.10;64.80;;;;;;5053243;28;20081;-42
2021/04/21 01:24:39;;;;;;;28.95;17.35;;;12.10;64.60;;;;;;5035532;28;20041;-45
2021/04/21 01:27:12;;;;;;;29.20;17.15;;;12.00;64.50;;;;;;5053084;28;20084;-46
2021/04/21 01:29:42;;;;;;;26.65;16.73;;;12.00;64.60;;;;;;5053193;28;20510;-46
2021/04/21 01:32:17;;;;;;;32.55;18.90;;;12.10;64.60;;;;;;5052627;28;20111;-45
2021/04/21 01:34:46;;;;;;;27.35;16.20;;;12.00;64.30;;;;;;5052865;28;20065;-45
2021/04/21 01:37:20;;;;;;;26.38;17.15;;;12.00;64.70;;;;;;5052924;28;20056;-44
2021/04/21 01:39:57;;;;;;;27.75;16.00;;;11.90;64.80;;;;;;5052985;28;20091;-44
2021/04/21 01:42:28;;;;;;;25.25;16.77;;;11.90;64.80;;;;;;5053364;28;20057;-45
2021/04/21 01:44:57;;;;;;;29.83;18.15;;;11.90;64.90;;;;;;5053134;28;20053;-44
2021/04/21 01:47:24;;;;;;;31.73;20.05;;;11.90;64.60;;;;;;5052654;28;20081;-44
2021/04/21 01:49:53;;;;;;;30.35;19.45;;;11.80;64.60;;;;;;5052750;28;20508;-44
2021/04/21 01:52:37;;;;;;;23.63;15.15;;;11.70;64.90;;;;;;5053029;28;20037;-43
2021/04/21 01:55:19;;;;;;;33.40;17.08;;;11.70;65.10;;;;;;5052408;28;20168;-46
2021/04/21 01:57:52;;;;;;;31.00;17.75;;;11.70;65.10;;;;;;5052810;28;20106;-45
2021/04/21 02:00:35;;;;;;;29.90;18.35;;;11.60;64.90;;;;;;5052886;28;20068;-44
2021/04/21 02:03:25;;;;;;;28.90;17.05;;;11.60;65.00;;;;;;5052050;28;20829;-44
2021/04/21 02:06:25;;;;;;;27.27;17.35;;;11.60;64.90;;;;;;5052861;28;20052;-45
2021/04/21 02:09:15;;;;;;;28.17;18.80;;;11.60;65.00;;;;;;5052611;28;20081;-43
2021/04/21 02:12:01;;;;;;;28.27;16.48;;;11.50;65.10;;;;;;5052558;28;20037;-43
2021/04/21 02:14:36;;;;;;;27.52;17.90;;;11.50;65.30;;;;;;5052472;28;20437;-46
2021/04/21 02:17:16;;;;;;;25.15;15.38;;;11.50;65.30;;;;;;5051328;28;20406;-44
2021/04/21 02:19:58;;;;;;;29.70;16.15;;;11.50;65.30;;;;;;5052133;28;20392;-44
2021/04/21 02:22:50;;;;;;;27.75;16.38;;;11.50;65.20;;;;;;5052089;28;20047;-45
2021/04/21 02:25:24;;;;;;;27.30;15.95;;;11.50;65.00;;;;;;5052180;28;20102;-45
2021/04/21 02:28:16;;;;;;;29.27;16.25;;;11.50;65.00;;;;;;5052557;28;20479;-45
2021/04/21 02:31:09;;;;;;;27.33;15.90;;;11.50;64.80;;;;;;5052117;28;20083;-43
2021/04/21 02:33:57;;;;;;;27.15;16.88;;;11.50;64.80;;;;;;4971142;28;20573;-44
2021/04/21 02:37:11;;;;;;;24.30;13.52;;;11.50;64.80;;;;;;4971056;28;20477;-44
2021/04/21 02:39:51;;;;;;;27.20;15.40;;;11.50;64.90;;;;;;4951706;29;20462;-45
2021/04/21 02:42:30;;;;;;;26.55;15.43;;;11.50;65.00;;;;;;4952140;29;20089;-45
2021/04/21 02:45:07;;;;;;;31.60;16.73;;;11.40;64.90;;;;;;4951735;29;20057;-43
2021/04/21 02:47:49;;;;;;;28.23;15.95;;;11.40;64.80;;;;;;4934995;28;20206;-46
2021/04/21 02:50:26;;;;;;;28.90;17.83;;;11.40;65.10;;;;;;4951868;29;20119;-44
2021/04/21 02:53:11;;;;;;;28.25;16.17;;;11.40;65.20;;;;;;4951833;29;20079;-45
2021/04/21 02:56:24;;;;;;;29.48;16.70;;;11.30;65.20;;;;;;4951706;29;20150;-46
2021/04/21 02:59:13;;;;;;;27.73;18.00;;;11.30;65.40;;;;;;4951594;29;20432;-45
2021/04/21 03:02:02;;;;;;;27.52;16.40;;;11.30;65.50;;;;;;4950981;28;20082;-46
2021/04/21 03:04:50;;;;;;;28.98;15.98;;;11.30;65.60;;;;;;4951479;28;20510;-42
2021/04/21 03:07:44;;;;;;;30.58;16.58;;;11.30;65.60;;;;;;4951345;29;20059;-45
2021/04/21 03:10:25;;;;;;;30.95;15.88;;;11.30;65.60;;;;;;4956585;28;20522;-47
2021/04/21 03:13:14;;;;;;;28.50;16.25;;;11.30;65.80;;;;;;4970709;28;20046;-45
2021/04/21 03:15:49;;;;;;;26.55;17.35;;;11.20;65.80;;;;;;4976834;28;20529;-44
2021/04/21 03:18:21;;;;;;;25.23;14.30;;;11.20;66.00;;;;;;4990225;28;20042;-45
2021/04/21 03:21:02;;;;;;;29.63;17.50;;;11.20;66.10;;;;;;4990022;28;20549;-46
2021/04/21 03:23:33;;;;;;;29.17;16.05;;;11.20;66.20;;;;;;4990092;28;20105;-45
2021/04/21 03:26:01;;;;;;;32.95;17.92;;;11.20;66.40;;;;;;4990134;28;20114;-43
2021/04/21 03:28:31;;;;;;;29.58;18.40;;;11.20;66.50;;;;;;4991509;28;20124;-46
2021/04/21 03:31:01;;;;;;;27.67;17.00;;;11.20;66.40;;;;;;4993013;28;20058;-45
2021/04/21 03:33:32;;;;;;;31.08;17.95;;;11.10;66.70;;;;;;4994278;28;20046;-44
2021/04/21 03:36:00;;;;;;;26.23;16.33;;;11.10;66.90;;;;;;5050060;28;20045;-45
2021/04/21 03:38:27;;;;;;;25.58;15.13;;;11.10;67.00;;;;;;5055511;28;20111;-46
2021/04/21 03:40:54;;;;;;;30.52;17.67;;;11.10;67.10;;;;;;5055124;28;20080;-44
2021/04/21 03:43:22;;;;;;;27.38;15.52;;;11.10;67.00;;;;;;5055421;28;20044;-45
2021/04/21 03:45:50;;;;;;;29.48;16.50;;;11.10;67.00;;;;;;5055098;28;20079;-44
2021/04/21 03:48:18;;;;;;;31.23;17.08;;;11.10;67.00;;;;;;5054869;28;20041;-45
2021/04/21 03:50:49;;;;;;;27.30;16.77;;;11.10;67.10;;;;;;5055298;28;20106;-43
2021/04/21 03:53:18;;;;;;;30.10;17.88;;;11.00;67.20;;;;;;5055079;28;20065;-46
2021/04/21 03:55:46;;;;;;;29.98;18.38;;;11.00;67.30;;;;;;5055348;28;20041;-45
2021/04/21 03:58:17;;;;;;;26.08;15.10;;;11.00;67.40;;;;;;5036994;28;20057;-44
2021/04/21 04:00:51;;;;;;;27.45;15.38;;;11.00;67.70;;;;;;5037324;28;20029;-45
2021/04/21 04:03:22;;;;;;;28.15;17.45;;;11.00;67.70;;;;;;5054666;28;20106;-44
2021/04/21 04:06:14;;;;;;;26.13;15.60;;;11.00;67.80;;;;;;5055205;28;20083;-45
2021/04/21 04:08:49;;;;;;;25.73;15.70;;;11.00;67.90;;;;;;5054481;28;20140;-46
2021/04/21 04:11:19;;;;;;;25.05;15.68;;;11.00;67.90;;;;;;5037233;28;20103;-45
2021/04/21 04:13:47;;;;;;;27.67;16.35;;;11.00;67.90;;;;;;5054169;28;20041;-44
2021/04/21 04:16:14;;;;;;;28.67;15.85;;;11.10;67.90;;;;;;5037285;28;20049;-45
2021/04/21 04:18:42;;;;;;;29.55;17.33;;;11.10;68.20;;;;;;5036791;28;20169;-44
2021/04/21 04:21:12;;;;;;;27.58;16.98;;;11.00;68.70;;;;;;5054772;28;20044;-46
2021/04/21 04:23:42;;;;;;;29.65;17.38;;;10.90;68.90;;;;;;5054638;28;20049;-42
2021/04/21 04:26:09;;;;;;;30.48;19.10;;;10.90;69.20;;;;;;5054746;28;20102;-44
2021/04/21 04:28:36;;;;;;;28.00;16.92;;;11.00;69.40;;;;;;5053708;28;20049;-45
2021/04/21 04:31:05;;;;;;;31.27;18.45;;;10.90;69.60;;;;;;5036777;28;20103;-43
2021/04/21 04:33:32;;;;;;;27.35;17.42;;;10.80;70.00;;;;;;5054211;28;20060;-43
2021/04/21 04:35:58;;;;;;;31.50;17.15;;;10.80;70.30;;;;;;5054217;28;20082;-43
2021/04/21 04:38:25;;;;;;;;;;;10.80;70.30;;;;;;5054510;28;20464;-44
2021/04/21 04:40:53;;;;;;;29.52;18.75;;;10.90;70.30;;;;;;5053857;28;19932;-42
2021/04/21 04:43:22;;;;;;;28.55;17.73;;;10.90;70.50;;;;;;5053419;28;20468;-43
2021/04/21 04:46:00;;;;;;;29.70;18.80;;;10.90;70.50;;;;;;5054510;28;20037;-44
2021/04/21 04:48:44;;;;;;;29.33;16.73;;;10.90;70.50;;;;;;5053830;28;20124;-45
2021/04/21 04:51:12;;;;;;;26.55;17.15;;;10.80;70.70;;;;;;5036545;28;20674;-44
2021/04/21 04:53:40;;;;;;;29.65;16.95;;;10.90;70.80;;;;;;5054023;28;20564;-42
2021/04/21 04:56:07;;;;;;;32.35;18.25;;;10.80;70.70;;;;;;5053591;28;20452;-44
2021/04/21 04:58:35;;;;;;;29.70;17.85;;;10.80;70.70;;;;;;5053361;28;20041;-45
2021/04/21 05:01:05;;;;;;;31.45;19.00;;;10.80;70.80;;;;;;5054001;28;20083;-45
2021/04/21 05:03:48;;;;;;;30.15;19.75;;;10.80;71.00;;;;;;5053692;28;20053;-44
2021/04/21 05:06:19;;;;;;;28.77;18.40;;;10.80;71.10;;;;;;5053551;28;20052;-46
2021/04/21 05:08:51;;;;;;;29.33;16.98;;;10.80;71.20;;;;;;5053296;28;20056;-44
2021/04/21 05:11:19;;;;;;;29.75;18.73;;;10.80;71.20;;;;;;5053109;28;20060;-44
2021/04/21 05:13:46;;;;;;;30.75;18.23;;;10.80;71.40;;;;;;5053491;28;20091;-46
2021/04/21 05:16:28;;;;;;;29.33;17.40;;;10.70;71.40;;;;;;5053468;28;20139;-42
2021/04/21 05:19:13;;;;;;;24.88;15.55;;;10.80;71.40;;;;;;5052948;28;20044;-45
2021/04/21 05:22:09;;;;;;;29.73;17.60;;;10.80;71.30;;;;;;5053706;28;20041;-44
2021/04/21 05:24:45;;;;;;;29.63;17.27;;;10.80;71.20;;;;;;5035095;28;20045;-46
2021/04/21 05:27:47;;;;;;;32.95;18.65;;;10.80;71.20;;;;;;5052101;28;20077;-46
2021/04/21 05:30:42;;;;;;;29.33;19.13;;;10.80;71.40;;;;;;5052973;28;20076;-48
2021/04/21 05:33:39;;;;;;;37.13;21.40;;;10.70;71.50;;;;;;5053087;28;20056;-45
2021/04/21 05:36:23;;;;;;;33.03;22.55;;;10.70;71.60;;;;;;5053104;28;20076;-44
2021/04/21 05:39:28;;;;;;;38.33;23.45;;;10.70;71.80;;;;;;5050297;28;20076;-45
2021/04/21 05:42:35;;;;;;;43.95;23.80;;;10.70;71.90;;;;;;5022437;28;20083;-45
2021/04/21 05:45:08;;;;;;;37.38;22.88;;;10.70;71.80;;;;;;5051813;28;20053;-48
2021/04/21 05:48:09;;;;;;;34.72;23.23;;;10.70;71.90;;;;;;5052505;28;20047;-48
2021/04/21 05:51:13;;;;;;;34.80;23.95;;;10.70;72.00;;;;;;5027655;28;20053;-47
2021/04/21 05:54:26;;;;;;;36.88;21.83;;;10.70;72.10;;;;;;5052532;28;20053;-45
2021/04/21 05:57:22;;;;;;;42.58;22.52;;;10.70;72.10;;;;;;4299984;28;10000708;-45
2021/04/21 06:00:10;;;;;;;34.33;22.35;;;10.70;72.00;;;;;;4988708;28;20160;-43
2021/04/21 06:02:38;;;;;;;36.80;23.65;;;10.70;72.10;;;;;;4988648;28;20418;-47
2021/04/21 06:05:08;;;;;;;34.28;21.73;;;10.70;72.40;;;;;;4988195;28;20061;-44
2021/04/21 06:07:34;;;;;;;32.83;21.75;;;10.60;72.60;;;;;;4987882;28;20085;-47
2021/04/21 06:10:28;;;;;;;35.97;24.00;;;10.60;72.60;;;;;;4987783;28;20108;-45
2021/04/21 06:13:02;;;;;;;30.73;19.58;;;10.60;72.80;;;;;;4988159;28;20102;-43
2021/04/21 06:15:30;;;;;;;30.35;17.23;;;10.60;72.80;;;;;;4988128;28;20065;-43
2021/04/21 06:17:59;;;;;;;33.90;18.60;;;10.70;72.80;;;;;;4988049;28;20065;-44
2021/04/21 06:20:44;;;;;;;30.95;18.15;;;10.70;72.70;;;;;;4987714;28;20073;-43
2021/04/21 06:23:15;;;;;;;33.78;23.83;;;10.70;72.60;;;;;;4988091;28;20050;-42
2021/04/21 06:25:44;;;;;;;29.52;19.40;;;10.70;72.80;;;;;;4987683;28;20452;-45
2021/04/21 06:28:14;;;;;;;42.10;24.25;;;10.70;73.00;;;;;;4988057;28;20057;-47
2021/04/21 06:30:43;;;;;;;44.88;26.15;;;10.70;73.50;;;;;;5017661;28;20066;-43
2021/04/21 06:33:10;;;;;;;41.30;26.05;;;10.70;73.90;;;;;;5051834;28;20126;-46
2021/04/21 06:35:39;;;;;;;45.33;26.95;;;10.60;74.30;;;;;;5051628;28;20116;-44
2021/04/21 06:38:07;;;;;;;40.00;26.83;;;10.60;74.30;;;;;;5051319;28;20068;-47
2021/04/21 06:40:36;;;;;;;42.50;27.75;;;10.60;74.30;;;;;;5052089;28;20072;-43
2021/04/21 06:43:03;;;;;;;45.67;27.92;;;10.60;74.80;;;;;;5033871;28;20043;-43
2021/04/21 06:45:33;;;;;;;47.60;29.63;;;10.60;74.80;;;;;;5051792;28;20081;-45
2021/04/21 06:48:02;;;;;;;41.08;22.63;;;10.50;74.90;;;;;;5051982;28;20059;-47
2021/04/21 06:50:37;;;;;;;43.97;28.98;;;10.60;74.70;;;;;;5051766;28;20053;-44
2021/04/21 06:53:09;;;;;;;46.33;29.27;;;10.70;74.60;;;;;;5050949;28;20053;-45
2021/04/21 06:55:36;;;;;;;46.22;29.42;;;10.70;75.20;;;;;;5051776;28;20048;-49
2021/04/21 06:58:30;;;;;;;46.58;29.48;;;10.60;74.80;;;;;;5051825;28;20049;-43
2021/04/21 07:01:11;;;;;;;48.88;30.45;;;10.70;74.80;;;;;;5049025;28;20048;-44
2021/04/21 07:03:38;;;;;;;51.10;32.38;;;10.70;74.50;;;;;;5051530;28;20203;-49
2021/04/21 07:06:07;;;;;;;54.05;32.08;;;10.80;74.50;;;;;;5051626;28;20040;-48
2021/04/21 07:08:40;;;;;;;45.85;30.55;;;10.70;74.30;;;;;;5051368;28;20088;-45
2021/04/21 07:11:17;;;;;;;48.47;30.67;;;10.70;74.80;;;;;;5051405;28;20045;-45
2021/04/21 07:13:46;;;;;;;47.60;31.17;;;10.70;74.60;;;;;;5051795;28;20507;-45
2021/04/21 07:16:28;;;;;;;37.92;23.42;;;10.70;74.50;;;;;;5035291;28;20045;-42
2021/04/21 07:18:58;;;;;;;51.38;33.28;;;10.70;74.70;;;;;;5051430;28;20041;-45
2021/04/21 07:21:26;;;;;;;46.92;28.40;;;10.80;75.50;;;;;;5051024;28;20045;-42
2021/04/21 07:23:55;;;;;;;47.88;32.10;;;10.90;75.30;;;;;;5051056;28;20449;-46
2021/04/21 07:26:35;;;;;;;61.47;36.90;;;10.90;75.40;;;;;;5051176;28;20073;-44
2021/04/21 07:29:04;;;;;;;57.25;38.47;;;10.90;74.60;;;;;;5051182;28;20045;-44
2021/04/21 07:31:36;;;;;;;54.42;34.38;;;10.90;74.00;;;;;;5051641;28;20357;-45
2021/04/21 07:34:32;;;;;;;60.83;37.03;;;10.90;74.90;;;;;;5051316;28;20052;-46
2021/04/21 07:37:00;;;;;;;55.83;34.55;;;11.00;74.20;;;;;;5050586;28;20048;-46
2021/04/21 07:39:41;;;;;;;47.78;25.30;;;11.00;73.70;;;;;;5051015;28;20050;-46
2021/04/21 07:42:17;;;;;;;41.40;22.55;;;11.10;73.70;;;;;;5051473;28;20053;-45
2021/04/21 07:44:51;;;;;;;52.08;31.42;;;11.20;73.70;;;;;;5050921;28;20069;-44
2021/04/21 07:47:20;;;;;;;44.42;29.27;;;11.30;72.30;;;;;;5050879;28;20076;-46
2021/04/21 07:49:54;;;;;;;49.83;29.00;;;11.30;72.10;;;;;;5051154;28;20041;-45
2021/04/21 07:52:27;;;;;;;38.92;24.55;;;11.30;72.00;;;;;;5050843;28;20044;-45
2021/04/21 07:55:12;;;;;;;37.13;23.85;;;11.40;71.30;;;;;;5050729;28;20055;-44
2021/04/21 07:57:42;;;;;;;38.20;25.15;;;11.40;70.90;;;;;;5051235;28;20082;-46
2021/04/21 08:00:12;;;;;;;36.60;23.65;;;11.40;71.40;;;;;;5050773;28;20053;-43
2021/04/21 08:02:38;;;;;;;34.97;24.42;;;11.40;71.60;;;;;;5051176;28;20056;-45
2021/04/21 08:05:10;;;;;;;43.83;25.77;;;11.40;72.40;;;;;;5050335;28;20045;-43
2021/04/21 08:07:42;;;;;;;36.28;23.95;;;11.40;72.80;;;;;;5050655;28;20088;-44
2021/04/21 08:10:34;;;;;;;40.05;23.95;;;11.40;73.40;;;;;;5051071;28;20509;-43
2021/04/21 08:13:02;;;;;;;37.20;24.25;;;11.40;72.90;;;;;;4989074;28;20162;-43
2021/04/21 08:15:39;;;;;;;40.70;24.77;;;11.50;72.90;;;;;;4992331;28;20397;-44
2021/04/21 08:18:09;;;;;;;34.50;22.35;;;11.50;72.10;;;;;;4993263;28;20062;-43
2021/04/21 08:20:44;;;;;;;30.85;20.13;;;11.50;72.00;;;;;;4992525;28;20053;-46
2021/04/21 08:23:31;;;;;;;34.97;19.95;;;11.60;71.00;;;;;;4992982;28;20141;-50
2021/04/21 08:26:03;;;;;;;26.95;15.82;;;11.60;68.30;;;;;;4980314;28;20042;-44
2021/04/21 08:28:29;;;;;;;;;;;11.70;67.70;;;;;;4977151;28;20038;-44
2021/04/21 08:30:58;;;;;;;21.58;12.85;;;11.80;65.50;;;;;;4992257;28;19926;-45
2021/04/21 08:33:30;;;;;;;23.15;14.13;;;11.80;64.90;;;;;;4992757;28;20042;-43
2021/04/21 08:35:57;;;;;;;26.27;14.75;;;11.90;63.70;;;;;;4992150;28;20092;-45
2021/04/21 08:38:23;;;;;;;;;;;11.90;63.20;;;;;;4993067;28;20070;-43
2021/04/21 08:40:50;;;;;;;22.08;15.02;;;11.90;64.00;;;;;;4992751;28;19922;-40
2021/04/21 08:43:20;;;;;;;26.30;14.75;;;11.90;64.40;;;;;;4992346;28;20513;-42
2021/04/21 08:45:47;;;;;;;22.90;14.55;;;12.00;63.10;;;;;;4992823;28;20047;-42
2021/04/21 08:48:15;;;;;;;25.10;15.02;;;12.00;63.50;;;;;;4992398;28;20579;-44
2021/04/21 08:50:43;;;;;;;29.50;15.48;;;12.00;63.80;;;;;;5041461;28;20048;-44
2021/04/21 08:53:11;;;;;;;25.30;15.05;;;12.10;62.60;;;;;;5053733;28;20535;-44
2021/04/21 08:55:39;;;;;;;23.40;13.57;;;12.10;62.00;;;;;;5053560;28;20403;-45
2021/04/21 08:58:09;;;;;;;25.45;16.38;;;12.20;62.80;;;;;;5053840;28;20061;-47
2021/04/21 09:00:39;;;;;;;31.95;16.10;;;12.20;62.00;;;;;;5053229;28;20114;-40
2021/04/21 09:03:07;;;;;;;27.80;15.68;;;12.30;61.80;;;;;;5052923;28;20064;-42
2021/04/21 09:05:34;;;;;;;28.15;15.18;;;12.30;62.40;;;;;;5053529;28;20403;-43
2021/04/21 09:08:02;;;;;;;24.60;14.85;;;12.30;62.40;;;;;;5053207;28;20060;-44
2021/04/21 09:10:29;;;;;;;27.02;16.90;;;12.40;62.40;;;;;;5053238;28;20103;-41
2021/04/21 09:12:56;;;;;;;31.38;17.27;;;12.40;62.60;;;;;;5053447;28;20053;-42
2021/04/21 09:15:23;;;;;;;25.52;15.88;;;12.50;63.10;;;;;;5053372;28;20095;-42
2021/04/21 09:17:52;;;;;;;32.38;17.38;;;12.50;62.90;;;;;;5053141;28;20075;-42
2021/04/21 09:20:21;;;;;;;24.88;16.35;;;12.50;62.80;;;;;;5035614;28;20056;-42
2021/04/21 09:22:58;;;;;;;24.80;15.20;;;12.60;63.30;;;;;;5053107;28;20079;-45
2021/04/21 09:25:31;;;;;;;28.13;17.83;;;12.70;64.90;;;;;;5052670;28;20049;-44
2021/04/21 09:28:00;;;;;;;29.77;16.30;;;12.70;64.10;;;;;;5053094;28;20045;-43
2021/04/21 09:30:27;;;;;;;;;;;12.70;62.70;;;;;;5053657;28;20041;-43
2021/04/21 09:32:57;;;;;;;22.63;14.75;;;12.70;62.30;;;;;;5034763;28;20039;-44
2021/04/21 09:35:33;;;;;;;29.40;16.20;;;12.80;61.90;;;;;;5053120;28;20048;-42
2021/04/21 09:38:17;;;;;;;25.70;14.57;;;12.80;59.60;;;;;;5052497;28;20053;-44
2021/04/21 09:40:49;;;;;;;25.90;16.60;;;12.90;59.30;;;;;;5053334;28;20574;-43
2021/04/21 09:43:19;;;;;;;23.88;14.38;;;12.90;57.30;;;;;;5052758;28;20040;-43
2021/04/21 09:45:48;;;;;;;28.55;14.35;;;12.90;58.00;;;;;;5053127;28;20110;-43
2021/04/21 09:48:17;;;;;;;25.83;14.75;;;12.90;57.30;;;;;;5052077;28;20446;-45
2021/04/21 09:51:14;;;;;;;29.10;16.08;;;12.90;58.20;;;;;;5053055;28;20044;-44
2021/04/21 09:53:53;;;;;;;28.13;17.05;;;13.00;59.40;;;;;;4991256;28;20058;-43
2021/04/21 09:56:41;;;;;;;24.10;15.82;;;13.10;60.00;;;;;;5089159;28;20368;-45
2021/04/21 09:59:10;;;;;;;28.70;18.35;;;13.20;60.40;;;;;;5089362;28;20036;-43
2021/04/21 10:01:45;;;;;;;26.23;16.98;;;13.30;60.50;;;;;;5088652;28;20082;-45
2021/04/21 10:04:15;;;;;;;;;;;13.30;61.10;;;;;;5089840;28;20048;-41
2021/04/21 10:07:02;;;;;;;26.90;18.38;;;13.30;60.80;;;;;;5089301;28;20383;-43
2021/04/21 10:09:28;;;;;;;;;;;13.30;59.70;;;;;;5089747;28;20048;-43
2021/04/21 10:12:36;;;;;;;31.67;19.52;;;13.30;61.10;;;;;;5088741;28;19924;-43
2021/04/21 10:15:11;;;;;;;25.77;16.48;;;13.40;61.60;;;;;;5088333;28;20071;-43
2021/04/21 10:17:41;;;;;;;26.85;15.23;;;13.40;60.40;;;;;;5089063;28;20487;-42
2021/04/21 10:20:12;;;;;;;25.85;16.45;;;13.50;60.20;;;;;;5088878;28;20051;-43
2021/04/21 10:22:41;;;;;;;28.88;17.35;;;13.50;60.00;;;;;;5088789;28;20123;-46
2021/04/21 10:25:09;;;;;;;27.17;16.48;;;13.60;59.70;;;;;;5088393;28;20072;-43
2021/04/21 10:27:36;;;;;;;28.13;17.20;;;13.60;58.30;;;;;;5088554;28;20502;-45
2021/04/21 10:30:05;;;;;;;28.17;17.60;;;13.60;58.90;;;;;;5088159;28;20132;-44
2021/04/21 10:32:36;;;;;;;30.95;17.40;;;13.70;59.60;;;;;;5088596;28;20102;-44
2021/04/21 10:35:04;;;;;;;27.95;16.65;;;13.60;57.90;;;;;;5088709;28;20080;-46
2021/04/21 10:37:39;;;;;;;23.40;15.10;;;13.60;58.00;;;;;;5088558;28;20101;-45
2021/04/21 10:40:07;;;;;;;29.20;17.60;;;13.60;57.40;;;;;;5088329;28;20052;-43
2021/04/21 10:42:49;;;;;;;26.80;15.32;;;13.60;57.30;;;;;;5088443;28;20049;-43
2021/04/21 10:45:18;;;;;;;30.80;19.42;;;13.70;57.60;;;;;;5086949;28;20494;-43
2021/04/21 10:47:50;;;;;;;29.35;18.23;;;13.70;56.90;;;;;;5088338;28;20449;-44
2021/04/21 10:50:36;;;;;;;27.85;17.33;;;13.80;56.40;;;;;;5088224;28;20046;-45
2021/04/21 10:53:03;;;;;;;26.60;14.13;;;13.80;55.00;;;;;;5088335;28;20097;-45
2021/04/21 10:55:32;;;;;;;32.45;12.90;;;13.80;53.20;;;;;;5088334;28;20097;-43
2021/04/21 10:58:12;;;;;;;23.38;13.57;;;13.80;47.50;;;;;;5088332;28;20048;-46
2021/04/21 11:00:46;;;;;;;28.23;16.65;;;13.80;49.30;;;;;;5087490;28;20056;-45
2021/04/21 11:03:26;;;;;;;27.40;16.92;;;13.70;53.00;;;;;;5087563;28;20421;-43
2021/04/21 11:05:59;;;;;;;28.42;16.25;;;13.80;53.50;;;;;;5087127;28;20101;-44
2021/04/21 11:08:50;;;;;;;33.20;17.38;;;13.70;52.00;;;;;;5074083;28;20041;-44
2021/04/21 11:11:32;;;;;;;28.48;18.42;;;13.70;54.20;;;;;;5074399;28;20045;-42
2021/04/21 11:13:59;;;;;;;30.38;18.77;;;13.70;55.50;;;;;;5073654;28;20056;-45
2021/04/21 11:16:31;;;;;;;;;;;13.80;55.00;;;;;;5074722;28;20045;-44
2021/04/21 11:19:17;;;;;;;33.55;22.13;;;13.80;56.60;;;;;;5074023;28;20389;-42
2021/04/21 11:21:52;;;;;;;33.67;21.52;;;13.90;57.40;;;;;;5074327;28;20102;-44
2021/04/21 11:24:21;;;;;;;32.03;19.98;;;13.90;56.90;;;;;;5073743;28;20044;-44
2021/04/21 11:26:48;;;;;;;35.42;22.85;;;13.90;58.50;;;;;;5073989;28;20128;-44
2021/04/21 11:29:27;;;;;;;30.23;19.30;;;14.00;58.90;;;;;;5073533;28;20106;-43
2021/04/21 11:31:53;;;;;;;30.25;16.95;;;14.00;56.80;;;;;;5074066;28;20102;-43
2021/04/21 11:34:28;;;;;;;28.10;17.08;;;14.10;51.40;;;;;;5074062;28;20053;-44
2021/04/21 11:36:54;;;;;;;24.55;14.27;;;14.00;51.40;;;;;;5073621;28;20040;-45
2021/04/21 11:39:47;;;;;;;32.40;19.58;;;14.00;53.00;;;;;;5074007;28;20048;-44
2021/04/21 11:42:37;;;;;;;30.05;18.77;;;14.10;53.50;;;;;;5073546;28;20079;-44
2021/04/21 11:45:21;;;;;;;31.65;20.60;;;14.10;53.80;;;;;;5073372;28;20145;-45
2021/04/21 11:47:55;;;;;;;34.28;20.60;;;14.10;54.20;;;;;;5073843;28;20076;-43
2021/04/21 11:50:33;;;;;;;27.83;19.45;;;14.10;53.70;;;;;;5073865;28;20128;-42
2021/04/21 11:53:20;;;;;;;26.42;15.95;;;14.20;54.00;;;;;;5073385;28;20071;-44
2021/04/21 11:58:30;;;;;;;27.50;15.90;;;14.40;51.50;;;;;;5073073;28;20052;-43
2021/04/21 12:01:05;;;;;;;29.60;17.10;;;14.40;52.00;;;;;;5073488;28;20052;-42
2021/04/21 12:03:39;;;;;;;32.50;18.20;;;14.40;50.90;;;;;;5073306;28;20514;-43
2021/04/21 12:06:11;;;;;;;31.52;19.60;;;14.40;51.40;;;;;;5073086;28;20072;-45
2021/04/21 12:08:47;;;;;;;30.05;21.08;;;14.40;52.20;;;;;;5073066;28;20050;-41
2021/04/21 12:11:34;;;;;;;33.55;21.15;;;14.50;53.10;;;;;;5072976;28;20045;-44
2021/04/21 12:14:01;;;;;;;33.95;19.20;;;14.50;53.70;;;;;;5073300;28;20060;-42
2021/04/21 12:16:29;;;;;;;35.20;20.10;;;14.40;53.80;;;;;;5073197;28;20052;-44
2021/04/21 12:18:58;;;;;;;33.72;20.08;;;14.40;54.00;;;;;;5071517;28;20036;-43
2021/04/21 12:21:39;;;;;;;32.88;19.60;;;14.40;54.60;;;;;;5073246;28;20094;-44
2021/04/21 12:24:07;;;;;;;30.50;18.17;;;14.50;54.10;;;;;;5071785;28;20041;-44
2021/04/21 12:26:39;;;;;;;26.60;16.65;;;14.60;53.80;;;;;;5072186;28;20431;-42
2021/04/21 12:29:08;;;;;;;31.15;19.60;;;14.60;53.30;;;;;;5072626;28;20403;-43
2021/04/21 12:31:35;;;;;;;30.35;18.77;;;14.70;53.20;;;;;;5072588;28;20560;-43
2021/04/21 12:34:12;;;;;;;32.65;20.63;;;14.60;53.30;;;;;;5072911;28;20503;-41
2021/04/21 12:36:39;;;;;;;32.97;19.30;;;14.70;53.90;;;;;;5054029;28;20514;-46
2021/04/21 12:39:08;;;;;;;30.67;19.85;;;14.60;53.30;;;;;;5072722;28;20569;-42
2021/04/21 12:41:37;;;;;;;28.65;16.83;;;14.60;53.40;;;;;;5072012;28;20048;-42
2021/04/21 12:44:22;;;;;;;29.52;18.58;;;14.70;52.00;;;;;;5072533;28;20091;-45
2021/04/21 12:46:51;;;;;;;40.40;24.52;;;14.60;55.10;;;;;;5045278;28;20052;-45
2021/04/21 12:49:35;;;;;;;42.42;27.63;;;14.50;59.80;;;;;;5071615;28;20129;-45
2021/04/21 12:52:06;;;;;;;41.33;26.05;;;14.30;62.50;;;;;;5072544;28;20039;-44
2021/04/21 12:54:41;;;;;;;37.00;26.35;;;14.20;64.10;;;;;;5072095;28;20052;-46
2021/04/21 12:57:15;;;;;;;43.05;26.17;;;14.10;63.60;;;;;;5072176;28;20214;-44
2021/04/21 12:59:43;;;;;;;44.58;24.35;;;14.10;63.80;;;;;;5071965;28;20568;-44
2021/04/21 13:02:16;;;;;;;39.05;23.63;;;14.20;64.10;;;;;;5072348;28;20065;-45
2021/04/21 13:04:46;;;;;;;40.53;23.63;;;14.30;63.80;;;;;;5072025;28;20052;-45
2021/04/21 13:07:18;;;;;;;36.67;24.02;;;14.20;63.20;;;;;;5071676;28;20048;-44
2021/04/21 13:09:45;;;;;;;38.50;27.95;;;14.30;62.70;;;;;;5071619;28;20076;-43
2021/04/21 13:12:18;;;;;;;38.28;22.17;;;14.40;62.20;;;;;;5071786;28;20098;-46